createdAt,value
2022-10-14T05:03:26.190Z,16.90
2022-10-14T05:08:29.809Z,16.90
2022-10-14T05:13:35.096Z,16.90
2022-10-14T05:18:40.884Z,16.80
2022-10-14T05:23:45.327Z,16.60
2022-10-14T05:28:49.647Z,16.50
2022-10-14T05:33:56.972Z,16.40
2022-10-14T05:39:00.637Z,16.30
2022-10-14T05:44:06.292Z,16.20
2022-10-14T05:49:11.802Z,16.20
2022-10-14T05:54:15.676Z,16.20
2022-10-14T05:59:19.814Z,16.20
2022-10-14T06:04:25.016Z,16.30
2022-10-14T06:09:31.274Z,16.30
2022-10-14T06:14:34.833Z,16.40
2022-10-14T06:19:39.746Z,16.30
2022-10-14T06:24:43.269Z,16.30
2022-10-14T06:29:46.947Z,16.30
2022-10-14T06:34:51.833Z,16.30
2022-10-14T06:39:55.463Z,16.30
2022-10-14T06:44:58.985Z,16.30
2022-10-14T06:50:03.916Z,16.30
2022-10-14T06:55:08.501Z,16.30
2022-10-14T07:00:12.255Z,16.30
2022-10-14T07:05:17.337Z,16.40
2022-10-14T07:10:20.990Z,16.40
2022-10-14T07:15:24.622Z,16.40
2022-10-14T07:20:29.503Z,16.50
2022-10-14T07:25:33.566Z,16.50
2022-10-14T07:30:37.131Z,16.50
2022-10-14T07:35:42.133Z,16.60
2022-10-14T07:40:45.821Z,16.60
2022-10-14T07:45:50.997Z,16.60
2022-10-14T07:50:55.940Z,16.70
2022-10-14T07:56:00.341Z,16.70
2022-10-14T08:01:03.908Z,16.80
2022-10-14T08:06:09.569Z,16.90
2022-10-14T08:11:15.522Z,16.90
2022-10-14T08:16:21.481Z,17.00
2022-10-14T08:21:27.048Z,17.00
2022-10-14T08:26:32.915Z,17.10
2022-10-14T08:31:36.465Z,17.20
2022-10-14T08:36:41.735Z,17.30
2022-10-14T08:42:06.220Z,17.40
2022-10-14T08:47:14.292Z,17.50
2022-10-14T08:52:24.759Z,17.70
2022-10-14T08:57:33.497Z,17.90
2022-10-14T09:02:43.956Z,18.00
2022-10-14T09:12:59.676Z,18.40
2022-10-14T09:18:08.758Z,18.60
2022-10-14T09:23:18.236Z,18.70
2022-10-14T09:28:22.352Z,18.90
2022-10-14T09:33:28.303Z,19.10
2022-10-14T09:38:33.398Z,19.20
2022-10-14T09:48:48.632Z,19.40
2022-10-14T09:53:56.253Z,19.50
2022-10-14T09:59:00.253Z,19.60
2022-10-14T10:04:27.335Z,19.60
2022-10-14T10:09:32.666Z,19.60
2022-10-14T10:14:36.229Z,19.60
2022-10-14T10:19:43.072Z,19.70
2022-10-14T10:24:48.677Z,19.70
2022-10-14T10:29:52.337Z,19.80
2022-10-14T10:35:09.782Z,19.80
2022-10-14T10:40:33.254Z,19.80
2022-10-14T10:45:46.617Z,19.90
2022-10-14T10:50:58.365Z,20.00
2022-10-14T10:56:13.532Z,20.10
2022-10-14T11:01:31.580Z,20.00
2022-10-14T11:07:00.871Z,20.00
2022-10-14T11:12:15.621Z,20.00
2022-10-14T11:17:29.752Z,20.10
2022-10-14T11:22:48.996Z,20.10
2022-10-14T11:28:00.759Z,20.20
2022-10-14T11:33:39.712Z,20.10
2022-10-14T11:39:04.300Z,20.10
2022-10-14T11:44:16.746Z,20.20
2022-10-14T11:49:25.592Z,20.30
2022-10-14T11:54:36.646Z,20.40
2022-10-14T11:59:47.555Z,20.40
2022-10-14T12:04:57.142Z,20.40
2022-10-14T12:10:04.117Z,20.50
2022-10-14T12:15:17.257Z,20.40
2022-10-14T12:20:30.696Z,20.30
2022-10-14T12:25:44.157Z,20.30
2022-10-14T12:30:49.185Z,20.30
2022-10-14T12:35:59.270Z,20.20
2022-10-14T12:41:34.087Z,20.20
2022-10-14T12:46:45.170Z,20.10
2022-10-14T12:51:56.250Z,20.10
2022-10-14T12:57:03.042Z,20.00
2022-10-14T13:02:24.909Z,20.00
2022-10-14T13:07:41.168Z,19.90
2022-10-14T13:12:45.622Z,19.90
2022-10-14T13:17:50.532Z,19.90
2022-10-14T13:22:54.432Z,19.90
2022-10-14T13:28:16.169Z,20.00
2022-10-14T13:33:27.742Z,20.00
2022-10-14T13:38:32.901Z,20.00
2022-10-14T13:43:40.492Z,20.00
2022-10-14T13:48:48.318Z,20.10
2022-10-14T13:53:52.961Z,20.10
2022-10-14T13:58:57.036Z,20.10
2022-10-14T14:04:02.266Z,20.20
2022-10-14T14:09:07.944Z,20.20
2022-10-14T14:14:20.284Z,20.30
2022-10-14T14:19:30.117Z,20.30
2022-10-14T14:24:34.251Z,20.40
2022-10-14T14:29:39.015Z,20.40
2022-10-14T14:34:46.515Z,20.40
2022-10-14T14:39:57.443Z,20.40
2022-10-14T14:45:04.602Z,20.40
2022-10-14T14:50:31.438Z,20.40
2022-10-14T14:55:38.540Z,20.40
2022-10-14T15:00:46.232Z,20.40
2022-10-14T15:05:58.569Z,20.30
2022-10-14T15:11:03.018Z,20.30
2022-10-14T15:16:07.497Z,20.30
2022-10-14T15:21:20.155Z,20.30
2022-10-14T15:26:29.508Z,20.20
2022-10-14T15:31:33.090Z,20.20
2022-10-14T15:36:37.994Z,20.20
2022-10-14T15:41:41.931Z,20.10
2022-10-14T15:47:04.625Z,20.10
2022-10-14T15:52:14.304Z,20.00
2022-10-14T15:57:18.106Z,19.90
2022-10-14T16:02:25.266Z,19.90
2022-10-14T16:07:30.198Z,19.90
2022-10-14T16:12:33.705Z,19.80
2022-10-14T16:17:37.257Z,19.80
2022-10-14T16:22:42.180Z,19.70
2022-10-14T16:27:45.752Z,19.70
2022-10-14T16:32:51.207Z,19.60
2022-10-14T16:37:56.361Z,19.50
2022-10-14T16:42:59.878Z,19.50
2022-10-14T16:48:03.776Z,19.40
2022-10-14T16:53:25.997Z,19.50
2022-10-14T16:58:29.666Z,19.50
2022-10-14T17:03:33.189Z,19.40
2022-10-14T17:08:41.047Z,19.30
2022-10-14T17:13:44.772Z,19.20
2022-10-14T17:24:02.482Z,19.00
2022-10-14T17:29:06.004Z,19.10
2022-10-14T17:34:09.882Z,19.10
2022-10-14T17:39:22.823Z,19.10
2022-10-14T17:44:33.258Z,19.00
2022-10-14T17:49:37.429Z,18.90
2022-10-14T17:54:42.314Z,18.80
2022-10-14T17:59:45.829Z,18.80
2022-10-14T18:04:49.354Z,18.80
2022-10-14T18:09:54.226Z,18.80
2022-10-14T18:14:58.175Z,18.70
2022-10-14T18:20:05.471Z,18.60
2022-10-14T18:25:10.809Z,18.50
2022-10-14T18:30:14.603Z,18.50
2022-10-14T18:35:18.215Z,18.40
2022-10-14T18:40:23.421Z,18.30
2022-10-14T18:45:26.990Z,18.30
2022-10-14T18:50:30.735Z,18.20
2022-10-14T18:55:39.481Z,18.20
2022-10-14T19:00:42.994Z,18.00
2022-10-14T19:05:47.199Z,18.00
2022-10-14T19:10:52.158Z,18.00
2022-10-14T19:16:01.639Z,17.90
2022-10-14T19:21:08.565Z,17.80
2022-10-14T19:31:25.110Z,17.80
2022-10-14T19:36:29.111Z,17.70
2022-10-14T19:41:38.445Z,17.70
2022-10-14T19:46:42.377Z,17.70
2022-10-14T19:51:45.873Z,17.60
2022-10-14T19:56:50.753Z,17.60
2022-10-14T20:01:54.465Z,17.60
2022-10-14T20:06:58.046Z,17.70
2022-10-14T20:12:03.021Z,17.70
2022-10-14T20:17:06.691Z,17.70
2022-10-14T20:22:10.216Z,17.60
2022-10-14T20:27:15.147Z,17.70
2022-10-14T20:32:18.734Z,17.80
2022-10-14T20:37:24.358Z,17.80
2022-10-14T20:42:34.473Z,17.80
2022-10-14T20:47:38.065Z,17.80
2022-10-14T20:52:41.556Z,17.80
2022-10-14T20:57:46.459Z,17.80
2022-10-14T21:02:50.034Z,17.90
2022-10-14T21:07:53.801Z,17.90
2022-10-14T21:12:58.680Z,17.90
2022-10-14T21:18:02.201Z,17.90
2022-10-14T21:23:05.727Z,17.80
2022-10-14T21:28:10.786Z,17.90
2022-10-14T21:33:14.359Z,17.90
2022-10-14T21:38:17.899Z,18.00
2022-10-14T21:43:22.791Z,18.00
2022-10-14T21:48:26.320Z,18.00
2022-10-14T21:53:30.994Z,18.00
2022-10-14T21:58:36.167Z,18.10
2022-10-14T22:03:39.833Z,18.10
2022-10-14T22:08:46.060Z,18.10
2022-10-14T22:13:51.728Z,18.20
2022-10-14T22:18:55.273Z,18.20
2022-10-14T22:23:59.455Z,18.20
2022-10-14T22:29:07.449Z,18.30
